sensor_id;sensor_type;location;lat;lon;timestamp;P1;durP1;ratioP1;P2;durP2;ratioP2
53263;SDS011;39153;52.680;6.172;2024-01-27T00:01:33;16.52;;;3.42;;
53263;SDS011;39153;52.680;6.172;2024-01-27T00:03:58;17.33;;;3.83;;
53263;SDS011;39153;52.680;6.172;2024-01-27T00:06:24;19.00;;;3.42;;
53263;SDS011;39153;52.680;6.172;2024-01-27T00:08:50;16.23;;;3.13;;
53263;SDS011;39153;52.680;6.172;2024-01-27T00:11:16;26.02;;;4.68;;
53263;SDS011;39153;52.680;6.172;2024-01-27T00:13:41;15.73;;;3.20;;
53263;SDS011;39153;52.680;6.172;2024-01-27T00:16:08;17.08;;;3.85;;
53263;SDS011;39153;52.680;6.172;2024-01-27T00:18:37;18.13;;;3.83;;
53263;SDS011;39153;52.680;6.172;2024-01-27T00:21:04;24.92;;;3.72;;
53263;SDS011;39153;52.680;6.172;2024-01-27T00:23:30;22.15;;;3.95;;
53263;SDS011;39153;52.680;6.172;2024-01-27T00:25:57;21.83;;;3.58;;
53263;SDS011;39153;52.680;6.172;2024-01-27T00:28:23;23.13;;;3.85;;
53263;SDS011;39153;52.680;6.172;2024-01-27T00:30:49;16.10;;;3.10;;
53263;SDS011;39153;52.680;6.172;2024-01-27T00:33:15;17.05;;;3.30;;
53263;SDS011;39153;52.680;6.172;2024-01-27T00:35:41;24.00;;;3.88;;
53263;SDS011;39153;52.680;6.172;2024-01-27T00:38:06;22.90;;;4.80;;
53263;SDS011;39153;52.680;6.172;2024-01-27T00:40:32;20.30;;;3.63;;
53263;SDS011;39153;52.680;6.172;2024-01-27T00:42:58;14.98;;;2.88;;
53263;SDS011;39153;52.680;6.172;2024-01-27T00:45:24;18.48;;;3.30;;
53263;SDS011;39153;52.680;6.172;2024-01-27T00:47:51;22.40;;;3.50;;
53263;SDS011;39153;52.680;6.172;2024-01-27T00:50:17;15.18;;;3.38;;
53263;SDS011;39153;52.680;6.172;2024-01-27T00:52:42;18.45;;;3.92;;
53263;SDS011;39153;52.680;6.172;2024-01-27T00:55:08;21.45;;;4.60;;
53263;SDS011;39153;52.680;6.172;2024-01-27T00:57:37;16.00;;;3.60;;
53263;SDS011;39153;52.680;6.172;2024-01-27T01:00:06;16.45;;;3.63;;
53263;SDS011;39153;52.680;6.172;2024-01-27T01:02:33;21.92;;;4.22;;
53263;SDS011;39153;52.680;6.172;2024-01-27T01:05:00;24.02;;;5.63;;
53263;SDS011;39153;52.680;6.172;2024-01-27T01:07:26;19.17;;;3.75;;
53263;SDS011;39153;52.680;6.172;2024-01-27T01:09:52;18.95;;;3.00;;
53263;SDS011;39153;52.680;6.172;2024-01-27T01:12:17;17.45;;;3.60;;
53263;SDS011;39153;52.680;6.172;2024-01-27T01:14:43;14.40;;;3.45;;
53263;SDS011;39153;52.680;6.172;2024-01-27T01:17:09;20.50;;;4.32;;
53263;SDS011;39153;52.680;6.172;2024-01-27T01:19:38;14.15;;;3.63;;
53263;SDS011;39153;52.680;6.172;2024-01-27T01:22:04;20.10;;;3.67;;
53263;SDS011;39153;52.680;6.172;2024-01-27T01:24:30;33.47;;;4.15;;
53263;SDS011;39153;52.680;6.172;2024-01-27T01:26:56;22.38;;;4.03;;
53263;SDS011;39153;52.680;6.172;2024-01-27T01:29:22;18.73;;;3.88;;
53263;SDS011;39153;52.680;6.172;2024-01-27T01:31:48;14.63;;;4.00;;
53263;SDS011;39153;52.680;6.172;2024-01-27T01:34:14;21.25;;;3.65;;
53263;SDS011;39153;52.680;6.172;2024-01-27T01:36:39;22.60;;;3.63;;
53263;SDS011;39153;52.680;6.172;2024-01-27T01:39:06;22.90;;;3.25;;
53263;SDS011;39153;52.680;6.172;2024-01-27T01:41:32;19.92;;;3.05;;
53263;SDS011;39153;52.680;6.172;2024-01-27T01:43:58;16.45;;;3.15;;
53263;SDS011;39153;52.680;6.172;2024-01-27T01:46:24;15.18;;;3.40;;
53263;SDS011;39153;52.680;6.172;2024-01-27T01:48:50;16.85;;;2.95;;
53263;SDS011;39153;52.680;6.172;2024-01-27T01:51:16;18.48;;;3.42;;
53263;SDS011;39153;52.680;6.172;2024-01-27T01:53:42;16.15;;;3.33;;
53263;SDS011;39153;52.680;6.172;2024-01-27T01:56:13;20.90;;;3.13;;
53263;SDS011;39153;52.680;6.172;2024-01-27T01:58:40;11.65;;;3.35;;
53263;SDS011;39153;52.680;6.172;2024-01-27T02:01:06;18.00;;;3.92;;
53263;SDS011;39153;52.680;6.172;2024-01-27T02:03:31;17.70;;;3.05;;
53263;SDS011;39153;52.680;6.172;2024-01-27T02:05:57;20.88;;;3.42;;
53263;SDS011;39153;52.680;6.172;2024-01-27T02:08:23;16.52;;;3.72;;
53263;SDS011;39153;52.680;6.172;2024-01-27T02:10:49;13.55;;;3.35;;
53263;SDS011;39153;52.680;6.172;2024-01-27T02:13:18;17.02;;;3.15;;
53263;SDS011;39153;52.680;6.172;2024-01-27T02:15:45;16.80;;;3.22;;
53263;SDS011;39153;52.680;6.172;2024-01-27T02:18:12;18.13;;;4.03;;
53263;SDS011;39153;52.680;6.172;2024-01-27T02:20:38;18.48;;;3.67;;
53263;SDS011;39153;52.680;6.172;2024-01-27T02:23:04;15.65;;;3.53;;
53263;SDS011;39153;52.680;6.172;2024-01-27T02:25:31;12.27;;;3.75;;
53263;SDS011;39153;52.680;6.172;2024-01-27T02:27:57;20.63;;;3.70;;
53263;SDS011;39153;52.680;6.172;2024-01-27T02:30:22;18.17;;;3.95;;
53263;SDS011;39153;52.680;6.172;2024-01-27T02:32:48;23.00;;;3.80;;
53263;SDS011;39153;52.680;6.172;2024-01-27T02:35:14;18.13;;;4.35;;
53263;SDS011;39153;52.680;6.172;2024-01-27T02:37:40;25.02;;;4.03;;
53263;SDS011;39153;52.680;6.172;2024-01-27T02:40:07;16.42;;;3.55;;
53263;SDS011;39153;52.680;6.172;2024-01-27T02:42:34;26.85;;;3.65;;
53263;SDS011;39153;52.680;6.172;2024-01-27T02:45:01;18.83;;;3.63;;
53263;SDS011;39153;52.680;6.172;2024-01-27T02:47:27;18.88;;;3.47;;
53263;SDS011;39153;52.680;6.172;2024-01-27T02:49:53;19.02;;;3.72;;
53263;SDS011;39153;52.680;6.172;2024-01-27T02:52:18;27.92;;;3.92;;
53263;SDS011;39153;52.680;6.172;2024-01-27T02:54:44;16.88;;;3.60;;
53263;SDS011;39153;52.680;6.172;2024-01-27T02:57:10;22.35;;;3.40;;
53263;SDS011;39153;52.680;6.172;2024-01-27T02:59:36;24.25;;;4.22;;
53263;SDS011;39153;52.680;6.172;2024-01-27T03:02:04;19.27;;;3.40;;
53263;SDS011;39153;52.680;6.172;2024-01-27T03:04:30;22.40;;;3.70;;
53263;SDS011;39153;52.680;6.172;2024-01-27T03:06:56;17.02;;;3.47;;
53263;SDS011;39153;52.680;6.172;2024-01-27T03:09:21;18.60;;;3.75;;
53263;SDS011;39153;52.680;6.172;2024-01-27T03:11:47;25.42;;;4.40;;
53263;SDS011;39153;52.680;6.172;2024-01-27T03:14:13;23.42;;;5.20;;
53263;SDS011;39153;52.680;6.172;2024-01-27T03:16:38;22.85;;;3.67;;
53263;SDS011;39153;52.680;6.172;2024-01-27T03:19:04;16.80;;;3.20;;
53263;SDS011;39153;52.680;6.172;2024-01-27T03:21:30;26.73;;;4.43;;
53263;SDS011;39153;52.680;6.172;2024-01-27T03:23:55;25.50;;;4.50;;
53263;SDS011;39153;52.680;6.172;2024-01-27T03:26:21;21.95;;;4.63;;
53263;SDS011;39153;52.680;6.172;2024-01-27T03:28:46;18.40;;;3.65;;
53263;SDS011;39153;52.680;6.172;2024-01-27T03:31:12;15.85;;;3.28;;
53263;SDS011;39153;52.680;6.172;2024-01-27T03:33:38;14.80;;;3.17;;
53263;SDS011;39153;52.680;6.172;2024-01-27T03:36:09;19.95;;;3.83;;
53263;SDS011;39153;52.680;6.172;2024-01-27T03:38:38;18.17;;;3.67;;
53263;SDS011;39153;52.680;6.172;2024-01-27T03:41:05;18.73;;;3.83;;
53263;SDS011;39153;52.680;6.172;2024-01-27T03:43:31;19.92;;;4.13;;
53263;SDS011;39153;52.680;6.172;2024-01-27T03:45:58;20.63;;;4.35;;
53263;SDS011;39153;52.680;6.172;2024-01-27T03:48:24;11.35;;;3.55;;
53263;SDS011;39153;52.680;6.172;2024-01-27T03:50:49;21.70;;;3.60;;
53263;SDS011;39153;52.680;6.172;2024-01-27T03:53:15;27.33;;;4.20;;
53263;SDS011;39153;52.680;6.172;2024-01-27T03:55:41;22.10;;;3.92;;
53263;SDS011;39153;52.680;6.172;2024-01-27T03:58:06;20.88;;;4.25;;
53263;SDS011;39153;52.680;6.172;2024-01-27T04:00:32;19.20;;;5.13;;
53263;SDS011;39153;52.680;6.172;2024-01-27T04:02:58;17.80;;;3.90;;
53263;SDS011;39153;52.680;6.172;2024-01-27T04:05:25;22.75;;;3.80;;
53263;SDS011;39153;52.680;6.172;2024-01-27T04:07:50;22.17;;;4.10;;
53263;SDS011;39153;52.680;6.172;2024-01-27T04:10:17;18.73;;;4.30;;
53263;SDS011;39153;52.680;6.172;2024-01-27T04:12:43;29.90;;;5.57;;
53263;SDS011;39153;52.680;6.172;2024-01-27T04:15:09;19.85;;;4.35;;
53263;SDS011;39153;52.680;6.172;2024-01-27T04:17:36;19.55;;;4.05;;
53263;SDS011;39153;52.680;6.172;2024-01-27T04:20:02;16.70;;;3.97;;
53263;SDS011;39153;52.680;6.172;2024-01-27T04:22:29;17.45;;;3.90;;
53263;SDS011;39153;52.680;6.172;2024-01-27T04:24:55;25.30;;;3.75;;
53263;SDS011;39153;52.680;6.172;2024-01-27T04:27:21;24.50;;;4.60;;
53263;SDS011;39153;52.680;6.172;2024-01-27T04:29:47;18.45;;;4.18;;
53263;SDS011;39153;52.680;6.172;2024-01-27T04:32:13;17.65;;;4.32;;
53263;SDS011;39153;52.680;6.172;2024-01-27T04:34:38;22.42;;;4.25;;
53263;SDS011;39153;52.680;6.172;2024-01-27T04:37:04;12.13;;;4.07;;
53263;SDS011;39153;52.680;6.172;2024-01-27T04:39:30;25.83;;;3.92;;
53263;SDS011;39153;52.680;6.172;2024-01-27T04:41:56;17.40;;;3.90;;
53263;SDS011;39153;52.680;6.172;2024-01-27T04:44:22;18.30;;;3.90;;
53263;SDS011;39153;52.680;6.172;2024-01-27T04:46:48;18.05;;;3.65;;
53263;SDS011;39153;52.680;6.172;2024-01-27T04:49:14;21.90;;;3.90;;
53263;SDS011;39153;52.680;6.172;2024-01-27T04:51:40;22.20;;;4.88;;
53263;SDS011;39153;52.680;6.172;2024-01-27T04:54:06;17.67;;;4.00;;
53263;SDS011;39153;52.680;6.172;2024-01-27T04:56:32;16.88;;;4.25;;
53263;SDS011;39153;52.680;6.172;2024-01-27T04:58:58;24.00;;;4.22;;
53263;SDS011;39153;52.680;6.172;2024-01-27T05:01:24;23.88;;;4.78;;
53263;SDS011;39153;52.680;6.172;2024-01-27T05:03:49;26.77;;;5.60;;
53263;SDS011;39153;52.680;6.172;2024-01-27T05:06:15;28.48;;;5.40;;
53263;SDS011;39153;52.680;6.172;2024-01-27T05:08:41;28.58;;;6.78;;
53263;SDS011;39153;52.680;6.172;2024-01-27T05:11:07;28.60;;;6.40;;
53263;SDS011;39153;52.680;6.172;2024-01-27T05:13:32;34.08;;;7.18;;
53263;SDS011;39153;52.680;6.172;2024-01-27T05:15:58;27.25;;;7.55;;
53263;SDS011;39153;52.680;6.172;2024-01-27T05:18:24;26.30;;;7.20;;
53263;SDS011;39153;52.680;6.172;2024-01-27T05:20:49;22.55;;;6.85;;
53263;SDS011;39153;52.680;6.172;2024-01-27T05:23:15;28.77;;;7.53;;
53263;SDS011;39153;52.680;6.172;2024-01-27T05:25:41;30.30;;;8.10;;
53263;SDS011;39153;52.680;6.172;2024-01-27T05:28:06;24.00;;;7.57;;
53263;SDS011;39153;52.680;6.172;2024-01-27T05:30:32;28.30;;;7.10;;
53263;SDS011;39153;52.680;6.172;2024-01-27T05:32:58;28.05;;;8.30;;
53263;SDS011;39153;52.680;6.172;2024-01-27T05:35:23;28.38;;;8.38;;
53263;SDS011;39153;52.680;6.172;2024-01-27T05:37:49;27.02;;;8.23;;
53263;SDS011;39153;52.680;6.172;2024-01-27T05:40:16;26.92;;;7.55;;
53263;SDS011;39153;52.680;6.172;2024-01-27T05:42:42;33.40;;;7.95;;
53263;SDS011;39153;52.680;6.172;2024-01-27T05:45:10;26.20;;;7.85;;
53263;SDS011;39153;52.680;6.172;2024-01-27T05:47:36;33.85;;;9.15;;
53263;SDS011;39153;52.680;6.172;2024-01-27T05:50:01;24.75;;;8.65;;
53263;SDS011;39153;52.680;6.172;2024-01-27T05:52:28;25.27;;;8.43;;
53263;SDS011;39153;52.680;6.172;2024-01-27T05:54:54;30.92;;;9.43;;
53263;SDS011;39153;52.680;6.172;2024-01-27T05:57:19;37.78;;;8.63;;
53263;SDS011;39153;52.680;6.172;2024-01-27T05:59:45;34.60;;;9.05;;
53263;SDS011;39153;52.680;6.172;2024-01-27T06:02:11;25.67;;;8.60;;
53263;SDS011;39153;52.680;6.172;2024-01-27T06:04:37;22.42;;;8.82;;
53263;SDS011;39153;52.680;6.172;2024-01-27T06:07:02;33.70;;;9.48;;
53263;SDS011;39153;52.680;6.172;2024-01-27T06:09:28;37.13;;;9.50;;
53263;SDS011;39153;52.680;6.172;2024-01-27T06:11:54;33.35;;;8.80;;
53263;SDS011;39153;52.680;6.172;2024-01-27T06:14:20;26.00;;;8.52;;
53263;SDS011;39153;52.680;6.172;2024-01-27T06:16:45;30.38;;;9.65;;
53263;SDS011;39153;52.680;6.172;2024-01-27T06:19:11;37.33;;;10.10;;
53263;SDS011;39153;52.680;6.172;2024-01-27T06:21:37;28.80;;;8.90;;
53263;SDS011;39153;52.680;6.172;2024-01-27T06:24:02;21.52;;;8.98;;
53263;SDS011;39153;52.680;6.172;2024-01-27T06:26:28;28.25;;;8.27;;
53263;SDS011;39153;52.680;6.172;2024-01-27T06:28:54;27.13;;;8.98;;
53263;SDS011;39153;52.680;6.172;2024-01-27T06:31:19;35.42;;;9.90;;
53263;SDS011;39153;52.680;6.172;2024-01-27T06:33:45;29.25;;;9.73;;
53263;SDS011;39153;52.680;6.172;2024-01-27T06:36:11;27.10;;;9.18;;
53263;SDS011;39153;52.680;6.172;2024-01-27T06:38:39;28.23;;;9.55;;
53263;SDS011;39153;52.680;6.172;2024-01-27T06:41:05;27.85;;;9.20;;
53263;SDS011;39153;52.680;6.172;2024-01-27T06:43:31;25.08;;;9.63;;
53263;SDS011;39153;52.680;6.172;2024-01-27T06:45:57;33.72;;;10.27;;
53263;SDS011;39153;52.680;6.172;2024-01-27T06:48:23;28.52;;;9.20;;
53263;SDS011;39153;52.680;6.172;2024-01-27T06:50:52;34.47;;;8.50;;
53263;SDS011;39153;52.680;6.172;2024-01-27T06:53:20;30.75;;;8.77;;
53263;SDS011;39153;52.680;6.172;2024-01-27T06:55:46;21.67;;;8.30;;
53263;SDS011;39153;52.680;6.172;2024-01-27T06:58:12;33.85;;;9.45;;
53263;SDS011;39153;52.680;6.172;2024-01-27T07:00:38;28.05;;;9.10;;
53263;SDS011;39153;52.680;6.172;2024-01-27T07:03:04;27.58;;;8.63;;
53263;SDS011;39153;52.680;6.172;2024-01-27T07:05:29;30.42;;;9.10;;
53263;SDS011;39153;52.680;6.172;2024-01-27T07:07:58;17.15;;;8.02;;
53263;SDS011;39153;52.680;6.172;2024-01-27T07:10:23;28.55;;;9.07;;
53263;SDS011;39153;52.680;6.172;2024-01-27T07:12:49;33.70;;;9.80;;
53263;SDS011;39153;52.680;6.172;2024-01-27T07:15:15;38.65;;;9.25;;
53263;SDS011;39153;52.680;6.172;2024-01-27T07:17:41;30.05;;;9.57;;
53263;SDS011;39153;52.680;6.172;2024-01-27T07:20:07;25.05;;;9.55;;
53263;SDS011;39153;52.680;6.172;2024-01-27T07:22:33;36.83;;;10.48;;
53263;SDS011;39153;52.680;6.172;2024-01-27T07:24:59;31.33;;;10.55;;
53263;SDS011;39153;52.680;6.172;2024-01-27T07:27:24;29.10;;;10.50;;
53263;SDS011;39153;52.680;6.172;2024-01-27T07:29:50;26.75;;;9.85;;
53263;SDS011;39153;52.680;6.172;2024-01-27T07:32:16;30.45;;;10.48;;
53263;SDS011;39153;52.680;6.172;2024-01-27T07:34:44;27.17;;;10.07;;
53263;SDS011;39153;52.680;6.172;2024-01-27T07:37:10;30.83;;;9.82;;
53263;SDS011;39153;52.680;6.172;2024-01-27T07:39:36;34.03;;;10.15;;
53263;SDS011;39153;52.680;6.172;2024-01-27T07:42:02;30.17;;;9.98;;
53263;SDS011;39153;52.680;6.172;2024-01-27T07:44:28;26.13;;;9.50;;
53263;SDS011;39153;52.680;6.172;2024-01-27T07:46:53;35.28;;;11.13;;
53263;SDS011;39153;52.680;6.172;2024-01-27T07:49:19;30.33;;;11.25;;
53263;SDS011;39153;52.680;6.172;2024-01-27T07:51:44;34.78;;;11.95;;
53263;SDS011;39153;52.680;6.172;2024-01-27T07:54:10;31.95;;;11.65;;
53263;SDS011;39153;52.680;6.172;2024-01-27T07:56:37;37.33;;;11.27;;
53263;SDS011;39153;52.680;6.172;2024-01-27T07:59:03;32.42;;;11.50;;
53263;SDS011;39153;52.680;6.172;2024-01-27T08:01:29;30.40;;;11.27;;
53263;SDS011;39153;52.680;6.172;2024-01-27T08:03:54;30.00;;;11.93;;
53263;SDS011;39153;52.680;6.172;2024-01-27T08:06:27;39.80;;;12.38;;
53263;SDS011;39153;52.680;6.172;2024-01-27T08:11:19;27.20;;;11.13;;
53263;SDS011;39153;52.680;6.172;2024-01-27T08:13:45;32.25;;;11.48;;
53263;SDS011;39153;52.680;6.172;2024-01-27T08:16:11;39.53;;;14.05;;
53263;SDS011;39153;52.680;6.172;2024-01-27T08:18:41;38.38;;;13.07;;
53263;SDS011;39153;52.680;6.172;2024-01-27T08:21:09;34.90;;;12.85;;
53263;SDS011;39153;52.680;6.172;2024-01-27T08:23:35;31.98;;;12.82;;
53263;SDS011;39153;52.680;6.172;2024-01-27T08:26:01;40.45;;;14.55;;
53263;SDS011;39153;52.680;6.172;2024-01-27T08:28:26;37.78;;;14.63;;
53263;SDS011;39153;52.680;6.172;2024-01-27T08:30:52;40.22;;;14.45;;
53263;SDS011;39153;52.680;6.172;2024-01-27T08:33:18;33.35;;;14.68;;
53263;SDS011;39153;52.680;6.172;2024-01-27T08:35:45;37.30;;;14.25;;
53263;SDS011;39153;52.680;6.172;2024-01-27T08:38:12;45.67;;;15.50;;
53263;SDS011;39153;52.680;6.172;2024-01-27T08:40:37;38.00;;;15.25;;
53263;SDS011;39153;52.680;6.172;2024-01-27T08:43:03;36.88;;;14.25;;
53263;SDS011;39153;52.680;6.172;2024-01-27T08:45:29;36.35;;;15.40;;
53263;SDS011;39153;52.680;6.172;2024-01-27T08:47:54;34.13;;;14.82;;
53263;SDS011;39153;52.680;6.172;2024-01-27T08:50:20;47.83;;;17.27;;
53263;SDS011;39153;52.680;6.172;2024-01-27T08:52:46;42.38;;;16.48;;
53263;SDS011;39153;52.680;6.172;2024-01-27T08:55:12;37.13;;;15.48;;
53263;SDS011;39153;52.680;6.172;2024-01-27T08:57:38;44.53;;;15.73;;
53263;SDS011;39153;52.680;6.172;2024-01-27T09:00:04;40.28;;;15.57;;
53263;SDS011;39153;52.680;6.172;2024-01-27T09:02:30;44.13;;;16.38;;
53263;SDS011;39153;52.680;6.172;2024-01-27T09:04:55;43.67;;;17.35;;
53263;SDS011;39153;52.680;6.172;2024-01-27T09:07:21;38.22;;;16.13;;
53263;SDS011;39153;52.680;6.172;2024-01-27T09:09:48;47.03;;;16.23;;
53263;SDS011;39153;52.680;6.172;2024-01-27T09:12:14;37.05;;;14.98;;
53263;SDS011;39153;52.680;6.172;2024-01-27T09:14:40;43.20;;;16.45;;
53263;SDS011;39153;52.680;6.172;2024-01-27T09:17:05;38.58;;;17.40;;
53263;SDS011;39153;52.680;6.172;2024-01-27T09:19:31;43.20;;;18.23;;
53263;SDS011;39153;52.680;6.172;2024-01-27T09:21:57;40.78;;;16.45;;
53263;SDS011;39153;52.680;6.172;2024-01-27T09:24:23;38.47;;;16.67;;
53263;SDS011;39153;52.680;6.172;2024-01-27T09:26:49;49.10;;;17.15;;
53263;SDS011;39153;52.680;6.172;2024-01-27T09:29:14;39.88;;;18.13;;
53263;SDS011;39153;52.680;6.172;2024-01-27T09:31:40;42.47;;;18.23;;
53263;SDS011;39153;52.680;6.172;2024-01-27T09:34:06;37.42;;;17.58;;
53263;SDS011;39153;52.680;6.172;2024-01-27T09:36:31;43.10;;;16.60;;
53263;SDS011;39153;52.680;6.172;2024-01-27T09:38:57;42.33;;;17.60;;
53263;SDS011;39153;52.680;6.172;2024-01-27T09:41:24;35.55;;;15.45;;
53263;SDS011;39153;52.680;6.172;2024-01-27T09:43:57;40.30;;;17.25;;
53263;SDS011;39153;52.680;6.172;2024-01-27T09:46:28;43.03;;;16.90;;
53263;SDS011;39153;52.680;6.172;2024-01-27T09:48:55;40.10;;;16.48;;
53263;SDS011;39153;52.680;6.172;2024-01-27T09:51:21;36.35;;;15.15;;
53263;SDS011;39153;52.680;6.172;2024-01-27T09:53:48;37.80;;;17.02;;
53263;SDS011;39153;52.680;6.172;2024-01-27T09:56:16;36.67;;;16.42;;
53263;SDS011;39153;52.680;6.172;2024-01-27T09:58:46;34.03;;;14.02;;
53263;SDS011;39153;52.680;6.172;2024-01-27T10:01:16;36.80;;;14.77;;
53263;SDS011;39153;52.680;6.172;2024-01-27T10:03:45;30.52;;;13.57;;
53263;SDS011;39153;52.680;6.172;2024-01-27T10:06:11;31.05;;;14.82;;
53263;SDS011;39153;52.680;6.172;2024-01-27T10:08:39;35.30;;;14.57;;
53263;SDS011;39153;52.680;6.172;2024-01-27T10:11:08;39.47;;;14.65;;
53263;SDS011;39153;52.680;6.172;2024-01-27T10:13:35;33.78;;;13.25;;
53263;SDS011;39153;52.680;6.172;2024-01-27T10:16:02;34.20;;;13.90;;
53263;SDS011;39153;52.680;6.172;2024-01-27T10:18:31;33.63;;;13.50;;
53263;SDS011;39153;52.680;6.172;2024-01-27T10:20:58;35.58;;;13.63;;
53263;SDS011;39153;52.680;6.172;2024-01-27T10:23:24;34.25;;;14.07;;
53263;SDS011;39153;52.680;6.172;2024-01-27T10:25:50;35.40;;;12.70;;
53263;SDS011;39153;52.680;6.172;2024-01-27T10:28:16;23.38;;;12.10;;
53263;SDS011;39153;52.680;6.172;2024-01-27T10:30:45;32.20;;;11.55;;
53263;SDS011;39153;52.680;6.172;2024-01-27T10:33:13;24.08;;;11.30;;
53263;SDS011;39153;52.680;6.172;2024-01-27T10:35:40;25.60;;;10.68;;
53263;SDS011;39153;52.680;6.172;2024-01-27T10:38:06;27.60;;;10.93;;
53263;SDS011;39153;52.680;6.172;2024-01-27T10:40:32;27.48;;;10.98;;
53263;SDS011;39153;52.680;6.172;2024-01-27T10:43:02;21.30;;;8.85;;
53263;SDS011;39153;52.680;6.172;2024-01-27T10:45:38;20.35;;;9.40;;
53263;SDS011;39153;52.680;6.172;2024-01-27T10:48:05;20.27;;;9.43;;
53263;SDS011;39153;52.680;6.172;2024-01-27T10:50:36;23.92;;;8.80;;
53263;SDS011;39153;52.680;6.172;2024-01-27T10:53:04;22.05;;;8.73;;
53263;SDS011;39153;52.680;6.172;2024-01-27T10:55:33;20.67;;;9.02;;
53263;SDS011;39153;52.680;6.172;2024-01-27T10:58:01;20.25;;;8.45;;
53263;SDS011;39153;52.680;6.172;2024-01-27T11:00:28;19.90;;;8.50;;
53263;SDS011;39153;52.680;6.172;2024-01-27T11:02:59;17.25;;;8.63;;
53263;SDS011;39153;52.680;6.172;2024-01-27T11:05:27;22.83;;;9.95;;
53263;SDS011;39153;52.680;6.172;2024-01-27T11:07:58;23.33;;;8.52;;
53263;SDS011;39153;52.680;6.172;2024-01-27T11:10:24;20.33;;;8.27;;
53263;SDS011;39153;52.680;6.172;2024-01-27T11:12:51;22.50;;;8.23;;
53263;SDS011;39153;52.680;6.172;2024-01-27T11:15:20;28.48;;;9.05;;
53263;SDS011;39153;52.680;6.172;2024-01-27T11:17:46;25.25;;;8.88;;
53263;SDS011;39153;52.680;6.172;2024-01-27T11:20:12;25.23;;;8.98;;
53263;SDS011;39153;52.680;6.172;2024-01-27T11:22:40;29.95;;;9.75;;
53263;SDS011;39153;52.680;6.172;2024-01-27T11:27:38;23.77;;;8.52;;
53263;SDS011;39153;52.680;6.172;2024-01-27T11:30:05;22.60;;;8.68;;
53263;SDS011;39153;52.680;6.172;2024-01-27T11:32:36;24.00;;;8.90;;
53263;SDS011;39153;52.680;6.172;2024-01-27T11:35:01;18.95;;;8.18;;
53263;SDS011;39153;52.680;6.172;2024-01-27T11:37:30;19.65;;;8.43;;
53263;SDS011;39153;52.680;6.172;2024-01-27T11:40:05;22.42;;;8.82;;
53263;SDS011;39153;52.680;6.172;2024-01-27T11:42:32;22.80;;;8.27;;
53263;SDS011;39153;52.680;6.172;2024-01-27T11:44:58;18.90;;;7.20;;
53263;SDS011;39153;52.680;6.172;2024-01-27T11:47:25;18.38;;;7.38;;
53263;SDS011;39153;52.680;6.172;2024-01-27T11:49:52;24.02;;;8.07;;
53263;SDS011;39153;52.680;6.172;2024-01-27T11:52:18;21.20;;;6.60;;
53263;SDS011;39153;52.680;6.172;2024-01-27T11:54:44;22.10;;;7.35;;
53263;SDS011;39153;52.680;6.172;2024-01-27T11:57:10;21.88;;;6.80;;
53263;SDS011;39153;52.680;6.172;2024-01-27T11:59:36;16.92;;;6.53;;
53263;SDS011;39153;52.680;6.172;2024-01-27T12:02:02;19.02;;;6.00;;
53263;SDS011;39153;52.680;6.172;2024-01-27T12:04:28;17.42;;;5.78;;
53263;SDS011;39153;52.680;6.172;2024-01-27T12:06:54;21.27;;;6.55;;
53263;SDS011;39153;52.680;6.172;2024-01-27T12:09:19;23.00;;;5.93;;
53263;SDS011;39153;52.680;6.172;2024-01-27T12:11:45;19.73;;;6.13;;
53263;SDS011;39153;52.680;6.172;2024-01-27T12:14:11;14.13;;;5.40;;
53263;SDS011;39153;52.680;6.172;2024-01-27T12:16:37;21.73;;;5.45;;
53263;SDS011;39153;52.680;6.172;2024-01-27T12:19:03;20.48;;;5.60;;
53263;SDS011;39153;52.680;6.172;2024-01-27T12:21:29;18.30;;;5.90;;
53263;SDS011;39153;52.680;6.172;2024-01-27T12:23:55;17.88;;;5.20;;
53263;SDS011;39153;52.680;6.172;2024-01-27T12:26:22;17.38;;;5.68;;
53263;SDS011;39153;52.680;6.172;2024-01-27T12:28:55;20.20;;;5.47;;
53263;SDS011;39153;52.680;6.172;2024-01-27T12:31:23;19.15;;;5.35;;
53263;SDS011;39153;52.680;6.172;2024-01-27T12:33:50;20.90;;;5.68;;
53263;SDS011;39153;52.680;6.172;2024-01-27T12:36:17;19.23;;;5.45;;
53263;SDS011;39153;52.680;6.172;2024-01-27T12:38:56;18.73;;;5.10;;
53263;SDS011;39153;52.680;6.172;2024-01-27T12:41:24;20.40;;;5.20;;
53263;SDS011;39153;52.680;6.172;2024-01-27T12:43:50;19.92;;;5.78;;
53263;SDS011;39153;52.680;6.172;2024-01-27T12:46:16;17.48;;;5.03;;
53263;SDS011;39153;52.680;6.172;2024-01-27T12:48:42;17.00;;;4.82;;
53263;SDS011;39153;52.680;6.172;2024-01-27T12:51:09;20.98;;;5.32;;
53263;SDS011;39153;52.680;6.172;2024-01-27T12:53:35;14.75;;;5.20;;
53263;SDS011;39153;52.680;6.172;2024-01-27T12:56:03;19.13;;;5.07;;
53263;SDS011;39153;52.680;6.172;2024-01-27T12:58:29;17.65;;;4.75;;
53263;SDS011;39153;52.680;6.172;2024-01-27T13:00:55;16.08;;;4.47;;
53263;SDS011;39153;52.680;6.172;2024-01-27T13:03:21;15.05;;;4.00;;
53263;SDS011;39153;52.680;6.172;2024-01-27T13:05:46;16.77;;;4.43;;
53263;SDS011;39153;52.680;6.172;2024-01-27T13:08:13;18.23;;;5.65;;
53263;SDS011;39153;52.680;6.172;2024-01-27T13:10:38;17.45;;;5.13;;
53263;SDS011;39153;52.680;6.172;2024-01-27T13:13:04;17.80;;;5.28;;
53263;SDS011;39153;52.680;6.172;2024-01-27T13:15:30;17.83;;;4.68;;
53263;SDS011;39153;52.680;6.172;2024-01-27T13:17:55;19.65;;;5.50;;
53263;SDS011;39153;52.680;6.172;2024-01-27T13:20:21;16.88;;;4.80;;
53263;SDS011;39153;52.680;6.172;2024-01-27T13:22:47;17.08;;;5.07;;
53263;SDS011;39153;52.680;6.172;2024-01-27T13:25:13;18.55;;;5.57;;
53263;SDS011;39153;52.680;6.172;2024-01-27T13:27:39;17.33;;;5.63;;
53263;SDS011;39153;52.680;6.172;2024-01-27T13:30:05;18.55;;;5.85;;
53263;SDS011;39153;52.680;6.172;2024-01-27T13:32:31;20.88;;;5.80;;
53263;SDS011;39153;52.680;6.172;2024-01-27T13:34:57;17.52;;;5.93;;
53263;SDS011;39153;52.680;6.172;2024-01-27T13:37:22;16.70;;;6.00;;
53263;SDS011;39153;52.680;6.172;2024-01-27T13:39:48;19.75;;;5.57;;
53263;SDS011;39153;52.680;6.172;2024-01-27T13:42:14;21.60;;;5.90;;
53263;SDS011;39153;52.680;6.172;2024-01-27T13:44:40;20.00;;;5.70;;
53263;SDS011;39153;52.680;6.172;2024-01-27T13:47:05;19.73;;;5.13;;
53263;SDS011;39153;52.680;6.172;2024-01-27T13:49:34;15.88;;;5.07;;
53263;SDS011;39153;52.680;6.172;2024-01-27T13:52:00;16.70;;;5.40;;
53263;SDS011;39153;52.680;6.172;2024-01-27T13:54:26;19.40;;;5.00;;
53263;SDS011;39153;52.680;6.172;2024-01-27T13:56:51;20.10;;;4.90;;
53263;SDS011;39153;52.680;6.172;2024-01-27T13:59:17;16.85;;;5.32;;
53263;SDS011;39153;52.680;6.172;2024-01-27T14:01:44;16.52;;;5.20;;
53263;SDS011;39153;52.680;6.172;2024-01-27T14:04:10;19.98;;;4.68;;
53263;SDS011;39153;52.680;6.172;2024-01-27T14:06:35;13.32;;;5.15;;
53263;SDS011;39153;52.680;6.172;2024-01-27T14:09:01;16.10;;;4.53;;
53263;SDS011;39153;52.680;6.172;2024-01-27T14:11:28;14.48;;;4.85;;
53263;SDS011;39153;52.680;6.172;2024-01-27T14:13:53;15.50;;;5.03;;
53263;SDS011;39153;52.680;6.172;2024-01-27T14:16:19;18.00;;;5.10;;
53263;SDS011;39153;52.680;6.172;2024-01-27T14:18:45;21.50;;;5.28;;
53263;SDS011;39153;52.680;6.172;2024-01-27T14:21:12;18.48;;;5.90;;
53263;SDS011;39153;52.680;6.172;2024-01-27T14:23:38;15.90;;;4.75;;
53263;SDS011;39153;52.680;6.172;2024-01-27T14:26:03;17.58;;;5.25;;
53263;SDS011;39153;52.680;6.172;2024-01-27T14:28:29;16.63;;;4.68;;
53263;SDS011;39153;52.680;6.172;2024-01-27T14:30:55;15.73;;;5.00;;